Time;durP1;ratioP1;P1;durP2;ratioP2;P2;SDS_P1;SDS_P2;PMS_P1;PMS_P2;Temp;Humidity;BMP_temperature;BMP_pressure;BME280_temperature;BME280_humidity;BME280_pressure;Samples;Min_cycle;Max_cycle;Signal;HPM_P1;HPM_P2
2021/03/28 00:02:11;;;;;;;15.02;4.60;;;;;;;6.04;97.72;101828.28;4952044;29;20098;-76
2021/03/28 00:04:48;;;;;;;12.35;4.65;;;;;;;5.87;98.41;101833.38;4934068;29;20031;-76
2021/03/28 00:07:17;;;;;;;13.07;4.38;;;;;;;5.94;98.15;101836.47;4950516;29;20066;-76
2021/03/28 00:09:48;;;;;;;22.60;4.53;;;;;;;5.71;98.74;101824.00;4950792;29;20428;-76
2021/03/28 00:12:27;;;;;;;13.07;4.80;;;;;;;5.65;99.41;101833.22;4951392;29;20039;-76
2021/03/28 00:14:58;;;;;;;14.23;4.20;;;;;;;5.84;98.64;101825.19;4950409;29;20066;-76
2021/03/28 00:17:30;;;;;;;16.75;5.00;;;;;;;5.88;98.00;101826.19;4951164;29;20042;-76
2021/03/28 00:20:12;;;;;;;15.52;4.60;;;;;;;5.85;97.89;101835.56;4934740;29;20117;-76
2021/03/28 00:22:50;;;;;;;15.40;4.80;;;;;;;5.95;98.50;101827.38;4923004;29;20059;-76
2021/03/28 00:25:31;;;;;;;14.88;4.72;;;;;;;5.93;97.37;101826.06;4951018;29;20038;-76
2021/03/28 00:27:57;;;;;;;17.53;4.63;;;;;;;5.85;98.08;101821.41;4950559;29;20444;-76
2021/03/28 00:30:32;;;;;;;20.52;4.57;;;;;;;5.90;98.07;101838.16;4951352;28;20279;-77
2021/03/28 00:33:13;;;;;;;16.85;5.03;;;;;;;5.92;98.50;101830.63;4946065;29;20024;-76
2021/03/28 00:35:52;;;;;;;20.20;4.75;;;;;;;5.87;98.51;101824.56;4948790;29;20031;-76
2021/03/28 00:38:30;;;;;;;24.92;4.47;;;;;;;5.88;98.20;101831.53;4951198;28;20081;-76
2021/03/28 00:41:11;;;;;;;22.73;4.68;;;;;;;5.76;98.70;101833.81;4951450;29;20055;-76
2021/03/28 00:44:06;;;;;;;14.18;4.32;;;;;;;5.73;99.49;101837.09;4949661;29;20131;-76
2021/03/28 00:46:37;;;;;;;15.40;4.50;;;;;;;5.78;98.92;101832.47;4942994;29;20043;-76
2021/03/28 00:49:05;;;;;;;14.65;4.53;;;;;;;5.78;98.76;101837.81;4948030;28;20032;-77
2021/03/28 00:51:34;;;;;;;16.35;4.63;;;;;;;5.86;98.69;101839.03;4923009;29;20094;-77
2021/03/28 00:54:16;;;;;;;13.60;4.72;;;;;;;5.78;99.23;101837.00;4951501;28;20106;-76
2021/03/28 00:56:48;;;;;;;11.13;4.25;;;;;;;5.74;99.13;101836.00;4945779;29;20114;-76
2021/03/28 00:59:32;;;;;;;13.90;4.57;;;;;;;5.58;99.69;101837.31;4938432;28;20112;-76
2021/03/28 01:02:11;;;;;;;19.35;4.63;;;;;;;5.67;99.51;101839.03;4954217;29;20496;-76
2021/03/28 01:04:55;;;;;;;15.13;4.53;;;;;;;5.58;99.83;101838.13;4954776;29;20039;-77
2021/03/28 01:07:33;;;;;;;15.48;4.47;;;;;;;5.55;99.42;101841.38;4953532;29;20492;-76
2021/03/28 01:10:16;;;;;;;10.35;3.97;;;;;;;5.22;100.00;101845.91;4952233;28;20097;-76
2021/03/28 01:12:42;;;;;;;20.67;4.85;;;;;;;5.41;100.00;101832.53;4953960;29;20130;-77
2021/03/28 01:15:35;;;;;;;18.33;6.03;;;;;;;5.53;100.00;101835.53;4954770;29;20103;-76
2021/03/28 01:18:16;;;;;;;18.88;5.22;;;;;;;5.48;99.83;101827.59;4947798;29;20083;-77
2021/03/28 01:21:08;;;;;;;29.88;5.85;;;;;;;5.42;99.75;101834.91;4953173;29;20035;-76
2021/03/28 01:23:43;;;;;;;23.35;5.95;;;;;;;5.34;100.00;101832.09;4954216;29;20117;-76
2021/03/28 01:26:11;;;;;;;16.98;4.90;;;;;;;5.49;99.32;101838.00;4953337;29;20053;-76
2021/03/28 01:28:51;;;;;;;17.98;4.20;;;;;;;5.50;99.25;101825.44;4953649;28;20030;-77
2021/03/28 01:31:28;;;;;;;19.05;4.07;;;;;;;5.56;98.92;101828.81;4954397;29;20109;-76
2021/03/28 01:34:07;;;;;;;21.27;5.05;;;;;;;5.47;99.83;101826.03;4953677;29;20035;-76
2021/03/28 01:37:06;;;;;;;25.48;4.95;;;;;;;5.50;99.05;101836.91;4932320;29;20057;-77
2021/03/28 01:39:44;;;;;;;14.23;4.28;;;;;;;5.59;98.64;101828.25;4937259;29;20066;-75
2021/03/28 01:42:46;;;;;;;18.88;4.28;;;;;;;5.54;98.68;101821.09;4952270;29;20074;-75
2021/03/28 01:45:17;;;;;;;18.23;5.03;;;;;;;5.46;99.47;101821.75;4953324;29;20047;-75
2021/03/28 01:47:48;;;;;;;25.02;5.15;;;;;;;5.47;99.24;101820.69;4954266;29;20032;-75
2021/03/28 01:50:36;;;;;;;23.65;4.85;;;;;;;5.47;99.26;101816.13;4953925;28;20054;-76
2021/03/28 01:53:12;;;;;;;15.30;4.78;;;;;;;5.48;98.79;101817.72;4947334;28;20102;-76
2021/03/28 01:56:11;;;;;;;12.40;4.05;;;;;;;5.57;98.15;101814.38;4949871;29;20038;-76
2021/03/28 01:58:58;;;;;;;14.82;4.10;;;;;;;5.57;98.27;101833.88;4948769;29;20047;-75
2021/03/28 02:01:46;;;;;;;15.57;4.38;;;;;;;5.43;98.92;101830.34;4952022;29;20419;-76
2021/03/28 02:04:24;;;;;;;18.33;4.32;;;;;;;5.38;99.02;101833.13;4953349;29;20072;-76
2021/03/28 02:06:52;;;;;;;13.52;3.83;;;;;;;5.45;98.82;101830.84;4953364;28;20074;-76
2021/03/28 02:09:47;;;;;;;15.82;3.88;;;;;;;5.39;98.99;101832.81;4952930;28;20451;-76
2021/03/28 02:12:19;;;;;;;13.27;4.15;;;;;;;5.28;99.26;101819.91;4951946;29;20031;-75
2021/03/28 02:14:53;;;;;;;16.30;4.50;;;;;;;5.40;99.30;101823.72;4951901;29;20031;-75
2021/03/28 02:17:56;;;;;;;14.82;4.70;;;;;;;5.30;99.33;101815.84;4953607;29;20060;-76
2021/03/28 02:20:21;;;;;;;16.48;4.32;;;;;;;5.31;98.79;101822.00;4951115;28;20075;-76
2021/03/28 02:22:57;;;;;;;16.55;3.63;;;;;;;5.24;99.12;101829.59;4953275;29;20574;-76
2021/03/28 02:25:51;;;;;;;15.30;3.70;;;;;;;5.02;99.38;101824.03;4953780;29;20027;-75
2021/03/28 02:28:47;;;;;;;14.48;3.85;;;;;;;5.14;100.00;101824.38;4927386;28;20047;-76
2021/03/28 02:31:26;;;;;;;13.38;3.58;;;;;;;5.17;99.24;101823.78;4927087;29;20496;-75
2021/03/28 02:34:02;;;;;;;12.93;3.08;;;;;;;4.99;100.00;101836.09;4952344;29;20043;-75
2021/03/28 02:36:35;;;;;;;19.25;3.80;;;;;;;5.15;100.00;101826.75;4934730;29;20110;-76
2021/03/28 02:39:25;;;;;;;11.30;3.75;;;;;;;5.13;99.58;101830.81;4953076;28;20093;-76
2021/03/28 02:41:50;;;;;;;13.57;3.70;;;;;;;5.12;99.55;101829.22;4953414;29;20064;-75
2021/03/28 02:44:32;;;;;;;17.23;4.03;;;;;;;5.16;99.30;101831.03;4952832;29;20452;-76
2021/03/28 02:47:13;;;;;;;13.15;3.92;;;;;;;4.93;99.97;101834.56;4952146;29;20039;-76
2021/03/28 02:49:57;;;;;;;20.33;3.53;;;;;;;5.08;99.61;101829.00;4952706;29;20062;-76
2021/03/28 02:52:44;;;;;;;14.57;4.05;;;;;;;4.99;99.76;101824.59;4952987;29;20042;-76
2021/03/28 02:55:33;;;;;;;18.27;3.63;;;;;;;5.01;100.00;101825.91;4952056;29;20071;-75
2021/03/28 02:58:08;;;;;;;16.48;4.78;;;;;;;5.11;99.43;101828.41;4934288;29;20038;-76
2021/03/28 03:01:00;;;;;;;13.45;3.42;;;;;;;5.04;98.76;101833.34;4952131;29;20492;-75
2021/03/28 03:03:53;;;;;;;20.13;3.83;;;;;;;5.00;99.68;101824.31;4951719;29;20035;-75
2021/03/28 03:06:51;;;;;;;21.17;3.88;;;;;;;5.10;98.75;101821.50;4953170;29;20035;-75
2021/03/28 03:09:47;;;;;;;17.20;3.80;;;;;;;5.01;99.25;101838.47;4932430;29;20043;-75
2021/03/28 03:12:30;;;;;;;14.95;3.72;;;;;;;4.96;99.28;101825.16;4953209;29;20043;-75
2021/03/28 03:14:56;;;;;;;13.77;4.00;;;;;;;4.88;99.57;101828.50;4952771;29;20215;-75
2021/03/28 03:17:34;;;;;;;15.70;3.78;;;;;;;5.00;99.19;101823.50;4952014;28;20508;-76
2021/03/28 03:20:31;;;;;;;15.93;4.15;;;;;;;5.02;98.50;101822.16;4952054;29;20039;-75
2021/03/28 03:23:08;;;;;;;11.82;3.60;;;;;;;5.12;97.72;101827.34;4952722;29;20046;-76
2021/03/28 03:26:11;;;;;;;16.17;3.75;;;;;;;4.98;98.14;101821.13;4951099;29;20163;-77
2021/03/28 03:29:00;;;;;;;11.95;3.60;;;;;;;4.94;98.86;101825.47;4952870;29;20055;-76
2021/03/28 03:31:50;;;;;;;18.88;4.18;;;;;;;4.84;98.38;101828.25;4951507;29;20046;-77
2021/03/28 03:34:31;;;;;;;12.27;4.35;;;;;;;4.92;98.44;101827.63;4952094;29;20038;-76
2021/03/28 03:37:15;;;;;;;16.98;4.03;;;;;;;5.07;97.31;101835.41;4933185;29;20122;-76
2021/03/28 03:39:59;;;;;;;23.50;6.00;;;;;;;5.18;97.17;101822.72;4951628;28;20055;-77
2021/03/28 03:42:50;;;;;;;23.80;7.05;;;;;;;5.14;96.32;101827.84;4952367;29;20396;-76
2021/03/28 03:45:34;;;;;;;21.98;5.90;;;;;;;5.06;97.18;101828.50;4934424;29;20043;-77
2021/03/28 03:48:18;;;;;;;27.02;8.43;;;;;;;5.10;96.95;101834.84;4950758;29;20031;-77
2021/03/28 03:51:07;;;;;;;24.60;6.68;;;;;;;5.27;95.93;101826.31;4950174;29;20484;-76
2021/03/28 03:54:11;;;;;;;18.55;5.57;;;;;;;4.90;97.45;101836.97;4935814;29;20147;-77
2021/03/28 03:56:48;;;;;;;20.20;4.45;;;;;;;4.93;96.71;101833.75;4896916;29;20043;-76
2021/03/28 03:59:23;;;;;;;13.82;4.40;;;;;;;5.13;96.66;101831.59;4950711;28;20039;-75
2021/03/28 04:02:13;;;;;;;25.80;5.45;;;;;;;5.17;95.87;101831.81;4950275;29;20653;-75
2021/03/28 04:04:54;;;;;;;16.50;3.40;;;;;;;5.29;95.43;101826.81;4951157;29;20031;-75
2021/03/28 04:07:32;;;;;;;16.48;4.95;;;;;;;5.19;94.74;101829.63;4951990;29;20521;-75
2021/03/28 04:10:25;;;;;;;11.65;3.38;;;;;;;5.31;94.43;101819.31;4951343;28;20488;-76
2021/03/28 04:13:12;;;;;;;10.55;3.38;;;;;;;5.18;95.36;101833.41;4952289;29;20047;-76
2021/03/28 04:16:02;;;;;;;10.98;3.33;;;;;;;5.30;94.34;101815.84;4952170;29;20034;-75
2021/03/28 04:18:37;;;;;;;11.32;3.25;;;;;;;5.31;93.84;101824.66;4952075;28;20027;-75
2021/03/28 04:21:38;;;;;;;20.58;3.80;;;;;;;5.40;94.03;101821.03;4950174;29;20381;-76
2021/03/28 04:24:19;;;;;;;10.60;3.58;;;;;;;5.30;93.26;101818.53;4951757;29;20067;-76
2021/03/28 04:26:44;;;;;;;16.13;3.50;;;;;;;5.37;93.50;101816.28;4951893;29;20038;-77
2021/03/28 04:29:12;;;;;;;14.32;3.28;;;;;;;5.22;93.73;101818.41;4951508;28;20303;-77
2021/03/28 04:31:40;;;;;;;15.95;3.72;;;;;;;5.18;94.42;101812.84;4949212;29;20107;-76
2021/03/28 04:34:27;;;;;;;18.27;3.38;;;;;;;5.30;94.27;101815.06;4952154;29;20504;-76
2021/03/28 04:37:30;;;;;;;13.98;3.55;;;;;;;5.32;93.66;101804.91;4950141;29;20035;-76
2021/03/28 04:40:14;;;;;;;16.23;3.42;;;;;;;5.40;93.38;101810.34;4939374;29;20126;-76
2021/03/28 04:42:51;;;;;;;13.30;3.15;;;;;;;5.41;93.12;101806.63;4951492;29;20377;-77
2021/03/28 04:45:17;;;;;;;10.15;3.65;;;;;;;5.41;92.51;101801.28;4951944;29;20050;-77
2021/03/28 04:48:25;;;;;;;18.50;3.10;;;;;;;5.45;92.10;101806.81;4951646;29;20039;-77
2021/03/28 04:51:08;;;;;;;11.95;3.10;;;;;;;5.14;93.85;101801.16;4948931;29;20504;-77
2021/03/28 04:54:16;;;;;;;14.10;3.03;;;;;;;5.34;92.78;101808.06;4950587;29;20366;-76
2021/03/28 04:57:02;;;;;;;13.98;3.38;;;;;;;5.26;93.20;101798.84;4923229;29;20069;-76
2021/03/28 04:59:55;;;;;;;15.18;3.65;;;;;;;5.25;93.44;101799.13;4950967;28;20114;-76
2021/03/28 05:02:35;;;;;;;10.77;3.10;;;;;;;5.04;95.15;101811.97;4950340;29;20255;-76
2021/03/28 05:05:16;;;;;;;9.35;3.25;;;;;;;5.04;94.96;101784.50;4952013;29;20106;-75
2021/03/28 05:08:09;;;;;;;9.90;3.10;;;;;;;5.10;95.13;101789.47;4951317;29;20035;-75
2021/03/28 05:10:50;;;;;;;14.13;3.20;;;;;;;5.35;94.20;101791.75;4950289;29;20031;-75
2021/03/28 05:13:37;;;;;;;13.93;3.67;;;;;;;5.53;92.47;101790.13;4951283;29;20047;-75
2021/03/28 05:16:31;;;;;;;11.38;3.35;;;;;;;5.51;92.09;101784.28;4949512;29;20034;-76
2021/03/28 05:19:18;;;;;;;15.55;3.67;;;;;;;5.28;93.33;101785.97;4949087;28;20043;-75
2021/03/28 05:22:05;;;;;;;13.63;3.20;;;;;;;5.33;92.95;101780.56;4951073;29;20426;-76
2021/03/28 05:25:09;;;;;;;12.07;2.95;;;;;;;5.32;93.76;101781.63;4951016;29;20032;-76
2021/03/28 05:28:06;;;;;;;17.10;3.10;;;;;;;5.25;93.13;101780.44;4931969;29;20054;-76
2021/03/28 05:30:50;;;;;;;11.27;3.13;;;;;;;5.27;93.65;101780.94;4949701;28;20175;-76
2021/03/28 05:33:18;;;;;;;12.80;3.30;;;;;;;5.34;93.62;101778.69;4949605;29;20038;-75
2021/03/28 05:36:09;;;;;;;14.45;2.83;;;;;;;5.46;93.30;101782.47;4951314;29;20062;-76
2021/03/28 05:39:12;;;;;;;11.52;3.40;;;;;;;5.37;92.96;101778.91;4951283;28;20035;-76
2021/03/28 05:41:56;;;;;;;8.18;2.85;;;;;;;5.67;91.38;101779.47;4933697;29;20039;-75
2021/03/28 05:44:54;;;;;;;11.23;3.03;;;;;;;5.40;91.61;101774.88;4954492;29;20031;-76
2021/03/28 05:47:36;;;;;;;15.88;2.88;;;;;;;5.46;92.02;101777.16;4908124;29;20107;-76
2021/03/28 05:50:23;;;;;;;12.52;2.95;;;;;;;5.65;91.77;101777.13;4951861;28;20039;-75
2021/03/28 05:52:55;;;;;;;11.10;3.58;;;;;;;5.68;92.15;101757.00;4953945;29;20780;-75
2021/03/28 05:56:00;;;;;;;7.00;3.28;;;;;;;5.62;92.30;101766.19;4953530;29;20447;-75
2021/03/28 05:59:02;;;;;;;14.82;3.75;;;;;;;5.71;91.49;101767.91;4954333;28;20027;-75
2021/03/28 06:02:10;;;;;;;10.02;3.15;;;;;;;5.54;92.24;101767.66;4953707;29;20035;-75
2021/03/28 06:04:44;;;;;;;13.40;2.97;;;;;;;5.76;91.54;101767.81;4928032;29;20499;-75
2021/03/28 06:07:28;;;;;;;9.43;2.97;;;;;;;5.81;90.63;101767.72;4953895;29;20046;-75
2021/03/28 06:10:05;;;;;;;11.23;3.35;;;;;;;5.85;90.41;101767.94;4951021;28;20039;-75
2021/03/28 06:12:48;;;;;;;14.95;3.42;;;;;;;5.99;89.43;101776.78;4953004;29;20035;-75
2021/03/28 06:15:25;;;;;;;10.45;3.10;;;;;;;6.07;88.97;101770.75;4934830;29;20035;-76
2021/03/28 06:18:09;;;;;;;12.85;4.05;;;;;;;6.01;89.40;101779.94;4941255;29;20043;-75
2021/03/28 06:20:41;;;;;;;12.13;3.15;;;;;;;6.06;89.73;101779.84;4953194;29;20041;-76
2021/03/28 06:23:50;;;;;;;15.45;3.70;;;;;;;5.89;90.36;101779.63;4934687;29;20079;-75
2021/03/28 06:26:53;;;;;;;17.02;3.28;;;;;;;6.01;89.85;101780.75;4952916;29;20046;-76
2021/03/28 06:29:43;;;;;;;14.23;3.45;;;;;;;6.22;89.69;101792.66;4952862;28;20747;-76
2021/03/28 06:32:11;;;;;;;11.48;3.08;;;;;;;6.24;88.76;101795.00;4953170;29;20448;-77
2021/03/28 06:34:42;;;;;;;15.23;3.72;;;;;;;6.31;88.35;101814.13;4952068;29;20070;-76
2021/03/28 06:37:13;;;;;;;;;;;;;;;6.29;87.96;101801.06;4953929;29;20031;-75
2021/03/28 06:40:27;;;;;;;13.35;3.70;;;;;;;6.54;87.04;101801.66;4953191;28;19966;-76
2021/03/28 06:43:26;;;;;;;12.75;3.88;;;;;;;6.59;87.04;101799.66;4952671;29;20067;-76
2021/03/28 06:46:11;;;;;;;9.63;3.20;;;;;;;6.64;86.88;101791.50;4932915;29;20480;-77
2021/03/28 06:49:13;;;;;;;10.13;3.38;;;;;;;6.65;87.41;101806.50;4953580;28;20050;-76
2021/03/28 06:52:00;;;;;;;13.30;3.47;;;;;;;6.71;86.87;101807.19;4952258;28;20408;-78
2021/03/28 06:55:02;;;;;;;13.90;3.95;;;;;;;6.80;86.77;101798.13;4952680;29;20030;-76
2021/03/28 06:58:05;;;;;;;13.07;3.63;;;;;;;6.65;86.08;101803.03;4952199;29;20042;-77
2021/03/28 07:00:30;;;;;;;12.13;3.38;;;;;;;6.80;86.35;101795.47;4950529;29;20027;-76
2021/03/28 07:03:42;;;;;;;16.15;3.63;;;;;;;6.85;85.92;101789.97;4954847;29;20066;-78
2021/03/28 07:06:34;;;;;;;14.13;3.38;;;;;;;6.86;85.66;101788.91;4956198;29;20027;-77
2021/03/28 07:09:32;;;;;;;13.10;3.22;;;;;;;6.89;85.44;101799.00;4954582;28;20035;-77
2021/03/28 07:12:34;;;;;;;15.32;3.72;;;;;;;6.98;86.09;101793.72;4955156;29;20042;-78
2021/03/28 07:15:25;;;;;;;12.27;3.47;;;;;;;7.15;85.52;101788.50;4954326;29;20512;-77
2021/03/28 07:18:18;;;;;;;14.43;4.40;;;;;;;7.18;85.44;101791.38;4955073;29;20042;-78
2021/03/28 07:20:57;;;;;;;14.70;3.97;;;;;;;7.44;84.56;101798.81;4956969;29;20054;-77
2021/03/28 07:23:49;;;;;;;14.13;4.00;;;;;;;7.41;84.37;101789.50;4956384;29;20028;-76
2021/03/28 07:26:33;;;;;;;11.32;3.78;;;;;;;7.54;83.52;101795.88;4939157;29;20042;-78
2021/03/28 07:29:46;;;;;;;11.10;3.08;;;;;;;7.63;83.39;101789.47;4954742;28;20078;-78
2021/03/28 07:32:17;;;;;;;17.95;3.88;;;;;;;7.39;84.80;101789.03;4948598;29;20130;-78
2021/03/28 07:35:08;;;;;;;12.07;3.92;;;;;;;7.44;84.33;101783.53;4957699;29;20464;-77
2021/03/28 07:38:21;;;;;;;19.75;4.65;;;;;;;7.64;85.10;101795.63;4953492;29;20031;-78
2021/03/28 07:41:05;;;;;;;12.15;4.05;;;;;;;7.87;83.87;101795.31;5047183;23;20039;-74
2021/03/28 07:43:52;;;;;;;16.00;3.67;;;;;;;7.94;83.02;101800.19;4970043;28;20034;-74
2021/03/28 07:46:33;;;;;;;10.10;3.60;;;;;;;8.04;82.41;101789.22;4966013;28;20041;-74
2021/03/28 07:49:46;;;;;;;17.13;4.33;;;;;;;8.23;81.85;101791.66;4947280;28;20039;-74
2021/03/28 07:52:26;;;;;;;11.27;4.22;;;;;;;8.25;82.69;101792.97;4961062;28;20039;-74
2021/03/28 07:54:57;;;;;;;14.95;3.88;;;;;;;8.27;82.76;101798.00;4964775;28;20037;-74
2021/03/28 07:57:38;;;;;;;13.25;4.30;;;;;;;8.37;82.71;101800.41;4963412;28;20383;-74
2021/03/28 08:00:09;;;;;;;13.50;3.67;;;;;;;8.43;82.67;101796.50;4963357;28;20510;-75
2021/03/28 08:02:34;;;;;;;;;;;;;;;8.53;81.33;101788.16;4964759;28;20057;-74
2021/03/28 08:05:12;;;;;;;20.98;6.05;;;;;;;8.65;81.53;101796.41;4962864;28;19918;-74
2021/03/28 08:07:55;;;;;;;11.77;3.70;;;;;;;8.59;82.27;101792.28;4961675;28;20039;-74
2021/03/28 08:10:30;;;;;;;12.07;4.65;;;;;;;8.60;81.96;101775.03;4963437;28;20038;-74
2021/03/28 08:13:33;;;;;;;16.02;3.85;;;;;;;8.92;81.65;101780.78;4966883;28;20113;-74
2021/03/28 08:16:07;;;;;;;15.85;4.18;;;;;;;9.15;80.44;101783.31;4962412;28;20043;-75
2021/03/28 08:19:10;;;;;;;12.13;3.45;;;;;;;9.35;79.74;101777.31;4961540;28;20526;-75
2021/03/28 08:21:44;;;;;;;14.30;3.40;;;;;;;9.15;79.31;101769.88;4941057;28;20084;-74
2021/03/28 08:24:47;;;;;;;12.88;3.92;;;;;;;9.32;79.67;101764.47;4962790;28;20038;-74
2021/03/28 08:27:31;;;;;;;10.85;3.63;;;;;;;9.70;78.38;101762.66;4962024;28;20039;-75
2021/03/28 08:30:28;;;;;;;10.70;3.42;;;;;;;9.79;78.39;101763.44;4946325;28;20084;-74
2021/03/28 08:33:04;;;;;;;14.55;4.32;;;;;;;9.86;77.30;101758.34;4928284;28;20377;-75
2021/03/28 08:35:56;;;;;;;14.65;4.05;;;;;;;9.96;77.68;101760.69;4944187;28;20054;-74
2021/03/28 08:38:28;;;;;;;10.77;3.55;;;;;;;10.34;75.31;101766.06;4959317;28;20035;-74
2021/03/28 08:41:19;;;;;;;13.43;3.75;;;;;;;10.30;76.04;101765.16;4957817;28;20491;-74
2021/03/28 08:44:16;;;;;;;13.43;3.85;;;;;;;10.53;75.07;101763.75;4964969;28;20047;-74
2021/03/28 08:46:56;;;;;;;9.77;3.67;;;;;;;10.76;74.86;101746.91;4952302;28;20527;-74
2021/03/28 08:50:14;;;;;;;12.93;3.83;;;;;;;11.19;73.06;101757.34;4962075;28;20034;-75
2021/03/28 08:53:09;;;;;;;13.73;4.05;;;;;;;11.42;71.95;101744.28;4950760;28;20081;-74
2021/03/28 08:56:08;;;;;;;10.52;3.72;;;;;;;11.39;70.36;101758.44;4962778;28;20046;-74
2021/03/28 08:59:04;;;;;;;13.07;3.50;;;;;;;11.75;72.01;101755.84;4941552;28;20047;-74
2021/03/28 09:01:47;;;;;;;10.82;3.67;;;;;;;12.36;68.87;101754.75;4948037;28;20043;-74
2021/03/28 09:04:22;;;;;;;9.23;3.22;;;;;;;12.52;69.16;101752.16;4964772;28;20043;-75
2021/03/28 09:07:10;;;;;;;10.63;3.47;;;;;;;12.69;67.33;101749.97;4961669;28;20039;-74
2021/03/28 09:09:35;;;;;;;9.13;3.65;;;;;;;12.60;68.61;101748.53;4959805;28;20499;-74
2021/03/28 09:12:18;;;;;;;11.43;3.28;;;;;;;12.41;67.43;101764.53;4967828;28;20101;-75
2021/03/28 09:14:55;;;;;;;13.07;3.60;;;;;;;12.09;68.42;101760.03;4948630;28;20400;-75
2021/03/28 09:17:39;;;;;;;13.93;3.90;;;;;;;12.13;69.28;101759.03;4952614;28;20035;-75
2021/03/28 09:20:31;;;;;;;8.80;3.72;;;;;;;11.99;70.21;101758.59;4965313;28;20488;-75
2021/03/28 09:23:24;;;;;;;16.42;4.07;;;;;;;12.18;69.62;101758.81;4966872;28;20573;-75
2021/03/28 09:25:59;;;;;;;15.75;3.88;;;;;;;11.76;72.34;101746.63;4954695;28;20403;-75
2021/03/28 09:28:46;;;;;;;9.32;3.47;;;;;;;11.85;70.98;101747.31;4951203;28;20035;-74
2021/03/28 09:31:41;;;;;;;12.63;3.28;;;;;;;11.63;71.86;101739.63;4961000;28;20047;-74
2021/03/28 09:34:35;;;;;;;11.02;3.38;;;;;;;12.11;71.98;101734.28;4966877;28;20031;-75
2021/03/28 09:37:22;;;;;;;9.82;4.03;;;;;;;12.36;69.91;101740.47;4962500;28;20814;-73
2021/03/28 09:39:53;;;;;;;11.93;3.83;;;;;;;12.48;68.78;101735.84;4967864;28;20038;-73
2021/03/28 09:42:47;;;;;;;7.22;3.22;;;;;;;12.04;69.95;101730.59;4971228;28;20080;-73
2021/03/28 09:45:43;;;;;;;13.82;3.40;;;;;;;12.24;70.32;101735.06;4964291;28;20039;-73
2021/03/28 09:48:32;;;;;;;8.63;3.25;;;;;;;12.31;69.22;101727.19;4965756;28;20067;-74
2021/03/28 09:51:03;;;;;;;8.77;3.42;;;;;;;12.41;70.00;101718.59;4970571;28;20573;-73
2021/03/28 09:53:56;;;;;;;6.95;2.90;;;;;;;12.35;70.62;101720.00;4964551;28;20086;-75
2021/03/28 09:56:49;;;;;;;12.30;3.30;;;;;;;12.48;70.25;101726.94;4965733;28;20031;-73
2021/03/28 09:59:24;;;;;;;10.65;2.75;;;;;;;12.73;68.36;101716.84;4945107;28;20038;-73
2021/03/28 10:02:27;;;;;;;16.80;3.95;;;;;;;12.75;67.71;101733.50;4945975;28;20027;-73
2021/03/28 10:05:11;;;;;;;9.70;2.85;;;;;;;12.77;68.68;101720.44;4971140;28;20384;-74
2021/03/28 10:08:04;;;;;;;10.48;2.72;;;;;;;12.97;66.76;101724.88;4962729;28;20035;-73
2021/03/28 10:10:44;;;;;;;9.60;2.78;;;;;;;12.91;65.56;101710.81;4965675;28;20484;-74
2021/03/28 10:13:16;;;;;;;9.50;2.73;;;;;;;13.07;65.07;101722.50;4964115;28;20030;-73
2021/03/28 10:15:51;;;;;;;7.97;2.63;;;;;;;13.24;67.37;101705.94;4955945;28;20655;-73
2021/03/28 10:18:20;;;;;;;8.27;2.53;;;;;;;13.26;67.30;101719.13;4961435;28;20027;-72
2021/03/28 10:21:00;;;;;;;10.70;2.60;;;;;;;13.18;65.12;101711.97;4957714;28;20031;-74
2021/03/28 10:23:31;;;;;;;8.40;2.58;;;;;;;13.05;66.03;101718.56;4948379;28;20039;-73
2021/03/28 10:26:26;;;;;;;10.48;3.03;;;;;;;12.85;66.45;101717.59;4949870;28;20408;-73
2021/03/28 10:29:13;;;;;;;11.93;2.75;;;;;;;13.05;66.12;101721.25;4956081;28;20394;-73
2021/03/28 10:32:00;;;;;;;11.18;2.70;;;;;;;12.93;65.64;101718.59;4946969;28;20027;-73
2021/03/28 10:34:52;;;;;;;12.15;3.10;;;;;;;12.91;66.10;101721.63;4960419;28;20031;-73
2021/03/28 10:37:39;;;;;;;14.13;3.53;;;;;;;12.74;67.34;101710.31;4960170;28;20030;-73
2021/03/28 10:40:28;;;;;;;8.10;2.70;;;;;;;12.64;66.72;101709.66;4960737;28;20027;-74
2021/03/28 10:43:14;;;;;;;9.15;3.10;;;;;;;12.84;67.23;101704.41;4964544;28;20035;-73
2021/03/28 10:45:52;;;;;;;12.10;2.80;;;;;;;12.94;66.98;101707.44;4944561;28;20441;-73
2021/03/28 10:49:01;;;;;;;8.65;2.28;;;;;;;13.14;66.35;101716.50;4960127;28;20045;-73
2021/03/28 10:51:45;;;;;;;8.35;2.67;;;;;;;13.08;65.85;101707.06;4966381;28;20077;-73
2021/03/28 10:54:32;;;;;;;10.68;2.25;;;;;;;13.35;64.82;101703.53;4966079;28;20061;-73
2021/03/28 10:57:16;;;;;;;9.95;2.42;;;;;;;13.52;64.32;101704.00;4940944;28;20070;-73
2021/03/28 10:59:47;;;;;;;9.13;2.10;;;;;;;13.45;64.35;101701.09;4963721;28;20046;-74
2021/03/28 11:02:31;;;;;;;10.50;2.90;;;;;;;13.43;63.72;101699.88;4960931;28;20085;-74
2021/03/28 11:05:35;;;;;;;8.30;2.25;;;;;;;13.49;63.48;101696.56;4957546;28;20071;-73
2021/03/28 11:08:23;;;;;;;13.68;2.40;;;;;;;13.40;64.04;101689.75;4955569;28;20184;-73
2021/03/28 11:11:24;;;;;;;11.15;2.90;;;;;;;13.43;64.00;101686.34;4964000;28;20113;-73
2021/03/28 11:14:14;;;;;;;11.98;2.70;;;;;;;13.45;64.30;101671.31;4962410;28;20035;-75
2021/03/28 11:16:49;;;;;;;8.65;2.30;;;;;;;13.47;64.96;101674.47;4961300;28;20027;-73
2021/03/28 11:19:42;;;;;;;9.30;2.42;;;;;;;13.46;64.13;101675.63;4963410;28;20522;-74
2021/03/28 11:22:25;;;;;;;13.68;2.38;;;;;;;13.61;62.63;101684.88;4963267;28;20066;-73
2021/03/28 11:25:04;;;;;;;7.15;2.40;;;;;;;13.55;63.23;101673.50;4936125;28;20046;-74
2021/03/28 11:28:00;;;;;;;12.05;2.63;;;;;;;13.66;63.73;101673.78;4962741;28;20035;-73
2021/03/28 11:30:50;;;;;;;9.45;2.53;;;;;;;13.46;63.89;101666.72;4886929;29;20040;-73
2021/03/28 11:33:19;;;;;;;9.00;2.15;;;;;;;13.38;64.04;101662.25;4901815;29;20028;-73
2021/03/28 11:35:53;;;;;;;8.82;2.50;;;;;;;13.42;64.40;101669.31;4903998;29;20044;-73
2021/03/28 11:38:19;;;;;;;9.32;2.63;;;;;;;13.33;65.09;101673.34;4882349;29;20044;-74
2021/03/28 11:40:45;;;;;;;9.52;2.55;;;;;;;13.25;64.70;101672.38;4903435;29;20036;-73
2021/03/28 11:43:11;;;;;;;6.82;2.42;;;;;;;13.30;65.81;101661.28;4902584;29;20040;-73
2021/03/28 11:45:42;;;;;;;8.50;2.60;;;;;;;13.30;65.41;101671.31;4900497;29;20040;-73
2021/03/28 11:48:26;;;;;;;9.15;2.28;;;;;;;13.22;65.97;101659.53;4904323;29;20062;-73
2021/03/28 11:50:55;;;;;;;7.35;2.70;;;;;;;13.32;66.97;101661.72;4899080;29;20059;-73
2021/03/28 11:53:23;;;;;;;11.40;2.60;;;;;;;13.27;66.49;101651.16;4884794;29;20020;-73
2021/03/28 11:55:53;;;;;;;9.07;2.88;;;;;;;13.42;66.05;101660.41;4898635;29;20041;-75
2021/03/28 11:58:26;;;;;;;10.55;2.80;;;;;;;13.33;66.14;101646.28;4902155;29;20043;-72
2021/03/28 12:00:59;;;;;;;7.57;2.38;;;;;;;13.36;66.02;101651.78;4893885;29;20576;-73
2021/03/28 12:03:28;;;;;;;8.30;2.70;;;;;;;13.01;67.65;101652.72;4887115;29;20131;-73
2021/03/28 12:06:02;;;;;;;10.50;2.50;;;;;;;13.14;67.47;101648.88;4902034;29;20183;-73
2021/03/28 12:08:32;;;;;;;9.05;2.95;;;;;;;13.06;67.31;101644.41;4941594;29;20046;-73
2021/03/28 12:11:38;;;;;;;9.27;2.90;;;;;;;13.30;68.37;101655.06;4939597;28;20044;-73
2021/03/28 12:14:13;;;;;;;6.75;2.25;;;;;;;13.24;67.96;101642.97;4950821;28;20122;-73
2021/03/28 12:17:09;;;;;;;9.80;2.45;;;;;;;13.30;67.59;101650.47;4938923;29;20040;-75
2021/03/28 12:19:44;;;;;;;15.90;3.85;;;;;;;13.23;67.32;101641.38;4939859;28;20035;-73
2021/03/28 12:22:17;;;;;;;7.97;2.53;;;;;;;13.23;67.17;101647.59;4940212;29;20063;-73
2021/03/28 12:24:45;;;;;;;8.90;2.53;;;;;;;13.04;68.82;101641.28;4926647;29;20036;-73
2021/03/28 12:27:37;;;;;;;6.25;2.05;;;;;;;12.99;69.40;101647.69;4944069;29;20039;-72
2021/03/28 12:30:23;;;;;;;10.48;2.45;;;;;;;13.00;69.61;101649.28;4945902;28;20038;-73
2021/03/28 12:32:55;;;;;;;11.48;2.67;;;;;;;13.05;71.08;101640.13;4944473;28;20042;-73
2021/03/28 12:35:55;;;;;;;8.82;2.85;;;;;;;13.15;70.78;101634.22;4952305;29;20090;-73
2021/03/28 12:38:29;;;;;;;4.80;2.17;;;;;;;13.38;70.68;101641.38;4948999;28;20081;-73
2021/03/28 12:41:13;;;;;;;14.00;2.80;;;;;;;13.34;69.05;101648.63;4961630;28;20128;-73
2021/03/28 12:43:45;;;;;;;9.98;2.78;;;;;;;13.20;68.74;101642.09;4965337;28;20096;-73